Terminal Aerodrome Forecast
Issued by NWS Kansas City/Pleasant Hill, MO

Home | Current Version | Previous Version | Text Only | Print | Product List | Glossary On
Versions: 1 2 3 4 5 6 7 8 9 10 11
000
FTUS43 KEAX 110520
TAFMCI
TAF
KMCI 110520Z 1106/1206 22007KT P6SM SKC
     FM111500 30018G28KT P6SM SCT150
     FM111800 32025G35KT P6SM BKN100
     FM112300 34015KT P6SM SCT060=

USA.gov is the U.S. government's official web portal to all federal, state and local government web resources and services.